sensor_id;sensor_type;location;lat;lon;timestamp;P1;durP1;ratioP1;P2;durP2;ratioP2
65206;SDS011;58477;48.072;11.970;2023-04-25T00:00:28;2.60;;;2.40;;
65206;SDS011;58477;48.072;11.970;2023-04-25T00:02:54;3.05;;;2.30;;
65206;SDS011;58477;48.072;11.970;2023-04-25T00:05:21;2.85;;;2.25;;
65206;SDS011;58477;48.072;11.970;2023-04-25T00:07:48;3.28;;;2.10;;
65206;SDS011;58477;48.072;11.970;2023-04-25T00:10:14;5.50;;;2.30;;
65206;SDS011;58477;48.072;11.970;2023-04-25T00:12:40;3.33;;;2.20;;
65206;SDS011;58477;48.072;11.970;2023-04-25T00:15:06;3.55;;;2.20;;
65206;SDS011;58477;48.072;11.970;2023-04-25T00:17:32;4.72;;;2.17;;
65206;SDS011;58477;48.072;11.970;2023-04-25T00:20:00;5.15;;;2.25;;
65206;SDS011;58477;48.072;11.970;2023-04-25T00:22:25;6.60;;;2.20;;
65206;SDS011;58477;48.072;11.970;2023-04-25T00:24:51;2.55;;;2.10;;
65206;SDS011;58477;48.072;11.970;2023-04-25T00:27:18;3.88;;;2.35;;
65206;SDS011;58477;48.072;11.970;2023-04-25T00:29:44;3.38;;;2.22;;
65206;SDS011;58477;48.072;11.970;2023-04-25T00:32:10;3.97;;;2.25;;
65206;SDS011;58477;48.072;11.970;2023-04-25T00:34:35;2.30;;;2.10;;
65206;SDS011;58477;48.072;11.970;2023-04-25T00:37:01;4.85;;;2.20;;
65206;SDS011;58477;48.072;11.970;2023-04-25T00:39:29;3.42;;;2.80;;
65206;SDS011;58477;48.072;11.970;2023-04-25T00:41:55;4.03;;;2.28;;
65206;SDS011;58477;48.072;11.970;2023-04-25T00:44:21;2.08;;;1.90;;
65206;SDS011;58477;48.072;11.970;2023-04-25T00:46:47;3.05;;;2.17;;
65206;SDS011;58477;48.072;11.970;2023-04-25T00:49:14;3.63;;;2.35;;
65206;SDS011;58477;48.072;11.970;2023-04-25T00:51:42;2.03;;;1.65;;
65206;SDS011;58477;48.072;11.970;2023-04-25T00:54:09;3.30;;;1.98;;
65206;SDS011;58477;48.072;11.970;2023-04-25T00:56:35;4.68;;;1.98;;
65206;SDS011;58477;48.072;11.970;2023-04-25T00:59:00;3.80;;;2.10;;
65206;SDS011;58477;48.072;11.970;2023-04-25T01:01:26;3.92;;;1.80;;
65206;SDS011;58477;48.072;11.970;2023-04-25T01:03:53;4.88;;;1.95;;
65206;SDS011;58477;48.072;11.970;2023-04-25T01:06:19;1.90;;;1.70;;
65206;SDS011;58477;48.072;11.970;2023-04-25T01:08:44;2.25;;;1.67;;
65206;SDS011;58477;48.072;11.970;2023-04-25T01:11:10;2.78;;;1.50;;
65206;SDS011;58477;48.072;11.970;2023-04-25T01:13:35;1.65;;;1.55;;
65206;SDS011;58477;48.072;11.970;2023-04-25T01:16:01;3.05;;;1.50;;
65206;SDS011;58477;48.072;11.970;2023-04-25T01:18:27;2.88;;;1.52;;
65206;SDS011;58477;48.072;11.970;2023-04-25T01:20:53;1.85;;;1.48;;
65206;SDS011;58477;48.072;11.970;2023-04-25T01:23:20;2.92;;;1.50;;
65206;SDS011;58477;48.072;11.970;2023-04-25T01:25:50;1.70;;;1.60;;
65206;SDS011;58477;48.072;11.970;2023-04-25T01:28:16;1.60;;;1.50;;
65206;SDS011;58477;48.072;11.970;2023-04-25T01:30:41;2.65;;;1.65;;
65206;SDS011;58477;48.072;11.970;2023-04-25T01:33:08;1.58;;;1.40;;
65206;SDS011;58477;48.072;11.970;2023-04-25T01:35:34;6.05;;;1.63;;
65206;SDS011;58477;48.072;11.970;2023-04-25T01:37:59;1.60;;;1.50;;
65206;SDS011;58477;48.072;11.970;2023-04-25T01:40:25;1.95;;;1.45;;
65206;SDS011;58477;48.072;11.970;2023-04-25T01:42:52;2.03;;;1.80;;
65206;SDS011;58477;48.072;11.970;2023-04-25T01:45:18;2.60;;;1.70;;
65206;SDS011;58477;48.072;11.970;2023-04-25T01:47:44;2.95;;;1.70;;
65206;SDS011;58477;48.072;11.970;2023-04-25T01:50:15;3.20;;;1.80;;
65206;SDS011;58477;48.072;11.970;2023-04-25T01:52:43;1.67;;;1.17;;
65206;SDS011;58477;48.072;11.970;2023-04-25T01:55:09;3.72;;;1.65;;
65206;SDS011;58477;48.072;11.970;2023-04-25T01:57:37;2.13;;;1.92;;
65206;SDS011;58477;48.072;11.970;2023-04-25T02:00:04;1.48;;;1.33;;
65206;SDS011;58477;48.072;11.970;2023-04-25T02:02:37;2.35;;;1.50;;
65206;SDS011;58477;48.072;11.970;2023-04-25T02:05:06;1.70;;;1.48;;
65206;SDS011;58477;48.072;11.970;2023-04-25T02:07:34;3.00;;;1.60;;
65206;SDS011;58477;48.072;11.970;2023-04-25T02:10:00;2.33;;;1.52;;
65206;SDS011;58477;48.072;11.970;2023-04-25T02:12:28;2.00;;;1.40;;
65206;SDS011;58477;48.072;11.970;2023-04-25T02:14:54;1.80;;;1.60;;
65206;SDS011;58477;48.072;11.970;2023-04-25T02:17:35;1.80;;;1.30;;
65206;SDS011;58477;48.072;11.970;2023-04-25T02:20:01;2.25;;;1.20;;
65206;SDS011;58477;48.072;11.970;2023-04-25T02:22:28;2.10;;;1.90;;
65206;SDS011;58477;48.072;11.970;2023-04-25T02:24:55;2.25;;;1.70;;
65206;SDS011;58477;48.072;11.970;2023-04-25T02:27:21;3.03;;;1.70;;
65206;SDS011;58477;48.072;11.970;2023-04-25T02:29:46;3.08;;;1.55;;
65206;SDS011;58477;48.072;11.970;2023-04-25T02:32:12;1.90;;;1.60;;
65206;SDS011;58477;48.072;11.970;2023-04-25T02:34:37;1.90;;;1.48;;
65206;SDS011;58477;48.072;11.970;2023-04-25T02:37:02;3.70;;;1.83;;
65206;SDS011;58477;48.072;11.970;2023-04-25T02:39:28;2.33;;;1.65;;
65206;SDS011;58477;48.072;11.970;2023-04-25T02:41:54;1.92;;;1.63;;
65206;SDS011;58477;48.072;11.970;2023-04-25T02:44:20;2.50;;;1.52;;
65206;SDS011;58477;48.072;11.970;2023-04-25T02:46:46;2.33;;;1.73;;
65206;SDS011;58477;48.072;11.970;2023-04-25T02:49:11;2.20;;;1.60;;
65206;SDS011;58477;48.072;11.970;2023-04-25T02:51:36;2.85;;;1.60;;
65206;SDS011;58477;48.072;11.970;2023-04-25T02:54:02;3.95;;;1.60;;
65206;SDS011;58477;48.072;11.970;2023-04-25T02:56:29;1.83;;;1.38;;
65206;SDS011;58477;48.072;11.970;2023-04-25T02:58:55;1.98;;;1.80;;
65206;SDS011;58477;48.072;11.970;2023-04-25T03:01:20;2.47;;;1.38;;
65206;SDS011;58477;48.072;11.970;2023-04-25T03:03:46;1.42;;;1.30;;
65206;SDS011;58477;48.072;11.970;2023-04-25T03:06:12;1.60;;;1.50;;
65206;SDS011;58477;48.072;11.970;2023-04-25T03:08:37;1.92;;;1.65;;
65206;SDS011;58477;48.072;11.970;2023-04-25T03:11:02;1.70;;;1.52;;
65206;SDS011;58477;48.072;11.970;2023-04-25T03:13:28;4.00;;;1.77;;
65206;SDS011;58477;48.072;11.970;2023-04-25T03:15:55;1.40;;;1.30;;
65206;SDS011;58477;48.072;11.970;2023-04-25T03:18:21;2.92;;;1.23;;
65206;SDS011;58477;48.072;11.970;2023-04-25T03:20:46;3.97;;;1.65;;
65206;SDS011;58477;48.072;11.970;2023-04-25T03:23:12;2.05;;;1.35;;
65206;SDS011;58477;48.072;11.970;2023-04-25T03:25:41;1.70;;;1.60;;
65206;SDS011;58477;48.072;11.970;2023-04-25T03:28:06;3.92;;;1.70;;
65206;SDS011;58477;48.072;11.970;2023-04-25T03:30:32;2.30;;;1.45;;
65206;SDS011;58477;48.072;11.970;2023-04-25T03:32:58;6.47;;;1.70;;
65206;SDS011;58477;48.072;11.970;2023-04-25T03:35:24;2.72;;;1.92;;
65206;SDS011;58477;48.072;11.970;2023-04-25T03:37:50;2.05;;;1.40;;
65206;SDS011;58477;48.072;11.970;2023-04-25T03:40:20;1.67;;;1.50;;
65206;SDS011;58477;48.072;11.970;2023-04-25T03:43:06;1.52;;;1.15;;
65206;SDS011;58477;48.072;11.970;2023-04-25T03:45:33;1.70;;;1.55;;
65206;SDS011;58477;48.072;11.970;2023-04-25T03:47:58;4.75;;;1.65;;
65206;SDS011;58477;48.072;11.970;2023-04-25T03:50:26;3.10;;;1.40;;
65206;SDS011;58477;48.072;11.970;2023-04-25T03:52:52;1.83;;;1.50;;
65206;SDS011;58477;48.072;11.970;2023-04-25T03:55:17;2.05;;;1.10;;
65206;SDS011;58477;48.072;11.970;2023-04-25T03:57:43;2.97;;;1.40;;
65206;SDS011;58477;48.072;11.970;2023-04-25T04:00:08;3.95;;;1.48;;
65206;SDS011;58477;48.072;11.970;2023-04-25T04:02:40;11.23;;;1.98;;
65206;SDS011;58477;48.072;11.970;2023-04-25T04:05:07;2.30;;;1.70;;
65206;SDS011;58477;48.072;11.970;2023-04-25T04:07:35;1.50;;;1.35;;
65206;SDS011;58477;48.072;11.970;2023-04-25T04:10:08;2.67;;;1.42;;
65206;SDS011;58477;48.072;11.970;2023-04-25T04:12:38;4.43;;;1.70;;
65206;SDS011;58477;48.072;11.970;2023-04-25T04:15:03;3.80;;;1.83;;
65206;SDS011;58477;48.072;11.970;2023-04-25T04:17:31;4.30;;;1.80;;
65206;SDS011;58477;48.072;11.970;2023-04-25T04:19:57;1.80;;;1.60;;
65206;SDS011;58477;48.072;11.970;2023-04-25T04:22:23;2.67;;;1.98;;
65206;SDS011;58477;48.072;11.970;2023-04-25T04:24:51;2.40;;;1.45;;
65206;SDS011;58477;48.072;11.970;2023-04-25T04:27:48;3.15;;;1.50;;
65206;SDS011;58477;48.072;11.970;2023-04-25T04:30:23;2.55;;;1.20;;
65206;SDS011;58477;48.072;11.970;2023-04-25T04:32:55;2.05;;;1.20;;
65206;SDS011;58477;48.072;11.970;2023-04-25T04:35:22;2.80;;;1.80;;
65206;SDS011;58477;48.072;11.970;2023-04-25T04:37:49;1.52;;;1.42;;
65206;SDS011;58477;48.072;11.970;2023-04-25T04:40:17;4.13;;;1.67;;
65206;SDS011;58477;48.072;11.970;2023-04-25T04:43:09;2.10;;;1.25;;
65206;SDS011;58477;48.072;11.970;2023-04-25T04:45:48;1.77;;;1.65;;
65206;SDS011;58477;48.072;11.970;2023-04-25T04:48:38;2.15;;;1.50;;
65206;SDS011;58477;48.072;11.970;2023-04-25T04:51:36;2.97;;;1.27;;
65206;SDS011;58477;48.072;11.970;2023-04-25T04:54:09;4.85;;;1.70;;
65206;SDS011;58477;48.072;11.970;2023-04-25T04:56:57;1.80;;;1.17;;
65206;SDS011;58477;48.072;11.970;2023-04-25T04:59:46;4.10;;;1.25;;
65206;SDS011;58477;48.072;11.970;2023-04-25T05:02:30;3.10;;;1.20;;
65206;SDS011;58477;48.072;11.970;2023-04-25T05:05:08;1.48;;;1.33;;
65206;SDS011;58477;48.072;11.970;2023-04-25T05:07:56;1.77;;;1.33;;
65206;SDS011;58477;48.072;11.970;2023-04-25T05:10:51;1.77;;;1.67;;
65206;SDS011;58477;48.072;11.970;2023-04-25T05:13:34;1.25;;;1.02;;
65206;SDS011;58477;48.072;11.970;2023-04-25T05:16:10;1.23;;;1.13;;
65206;SDS011;58477;48.072;11.970;2023-04-25T05:18:54;1.67;;;1.52;;
65206;SDS011;58477;48.072;11.970;2023-04-25T05:21:27;1.65;;;1.55;;
65206;SDS011;58477;48.072;11.970;2023-04-25T05:24:05;5.97;;;2.00;;
65206;SDS011;58477;48.072;11.970;2023-04-25T05:26:31;2.35;;;1.55;;
65206;SDS011;58477;48.072;11.970;2023-04-25T05:29:06;2.53;;;1.67;;
65206;SDS011;58477;48.072;11.970;2023-04-25T05:31:35;8.98;;;1.80;;
65206;SDS011;58477;48.072;11.970;2023-04-25T05:36:53;2.85;;;1.73;;
65206;SDS011;58477;48.072;11.970;2023-04-25T05:39:19;1.92;;;1.73;;
65206;SDS011;58477;48.072;11.970;2023-04-25T05:42:03;3.47;;;2.00;;
65206;SDS011;58477;48.072;11.970;2023-04-25T05:44:47;4.25;;;1.73;;
65206;SDS011;58477;48.072;11.970;2023-04-25T05:47:31;2.80;;;1.90;;
65206;SDS011;58477;48.072;11.970;2023-04-25T05:50:29;2.20;;;2.00;;
65206;SDS011;58477;48.072;11.970;2023-04-25T05:53:08;3.05;;;1.90;;
65206;SDS011;58477;48.072;11.970;2023-04-25T05:55:38;2.67;;;1.95;;
65206;SDS011;58477;48.072;11.970;2023-04-25T05:58:19;2.42;;;1.90;;
65206;SDS011;58477;48.072;11.970;2023-04-25T06:00:44;4.43;;;1.98;;
65206;SDS011;58477;48.072;11.970;2023-04-25T06:03:11;5.43;;;1.50;;
65206;SDS011;58477;48.072;11.970;2023-04-25T06:05:40;3.47;;;1.90;;
65206;SDS011;58477;48.072;11.970;2023-04-25T06:08:09;3.42;;;1.77;;
65206;SDS011;58477;48.072;11.970;2023-04-25T06:10:36;3.60;;;1.60;;
65206;SDS011;58477;48.072;11.970;2023-04-25T06:13:02;1.98;;;1.25;;
65206;SDS011;58477;48.072;11.970;2023-04-25T06:15:30;1.50;;;1.40;;
65206;SDS011;58477;48.072;11.970;2023-04-25T06:17:59;1.15;;;1.05;;
65206;SDS011;58477;48.072;11.970;2023-04-25T06:20:25;3.20;;;1.50;;
65206;SDS011;58477;48.072;11.970;2023-04-25T06:22:51;6.70;;;1.80;;
65206;SDS011;58477;48.072;11.970;2023-04-25T06:25:18;2.72;;;1.52;;
65206;SDS011;58477;48.072;11.970;2023-04-25T06:27:44;1.75;;;1.60;;
65206;SDS011;58477;48.072;11.970;2023-04-25T06:30:09;3.85;;;1.42;;
65206;SDS011;58477;48.072;11.970;2023-04-25T06:32:37;4.82;;;1.60;;
65206;SDS011;58477;48.072;11.970;2023-04-25T06:35:03;2.10;;;1.55;;
65206;SDS011;58477;48.072;11.970;2023-04-25T06:37:29;1.10;;;1.10;;
65206;SDS011;58477;48.072;11.970;2023-04-25T06:39:55;1.70;;;1.40;;
65206;SDS011;58477;48.072;11.970;2023-04-25T06:42:21;2.72;;;1.48;;
65206;SDS011;58477;48.072;11.970;2023-04-25T06:44:57;3.60;;;1.60;;
65206;SDS011;58477;48.072;11.970;2023-04-25T06:47:22;4.25;;;1.60;;
65206;SDS011;58477;48.072;11.970;2023-04-25T06:49:48;2.50;;;1.70;;
65206;SDS011;58477;48.072;11.970;2023-04-25T06:52:14;2.17;;;1.63;;
65206;SDS011;58477;48.072;11.970;2023-04-25T06:54:40;1.95;;;1.38;;
65206;SDS011;58477;48.072;11.970;2023-04-25T06:57:17;3.28;;;1.50;;
65206;SDS011;58477;48.072;11.970;2023-04-25T06:59:43;1.88;;;1.63;;
65206;SDS011;58477;48.072;11.970;2023-04-25T07:02:09;2.17;;;1.42;;
65206;SDS011;58477;48.072;11.970;2023-04-25T07:04:34;3.72;;;1.27;;
65206;SDS011;58477;48.072;11.970;2023-04-25T07:07:01;2.00;;;1.40;;
65206;SDS011;58477;48.072;11.970;2023-04-25T07:09:37;2.00;;;1.00;;
65206;SDS011;58477;48.072;11.970;2023-04-25T07:12:03;1.88;;;1.23;;
65206;SDS011;58477;48.072;11.970;2023-04-25T07:14:29;3.08;;;1.00;;
65206;SDS011;58477;48.072;11.970;2023-04-25T07:16:56;1.83;;;1.10;;
65206;SDS011;58477;48.072;11.970;2023-04-25T07:19:24;2.75;;;1.15;;
65206;SDS011;58477;48.072;11.970;2023-04-25T07:21:53;1.85;;;1.27;;
65206;SDS011;58477;48.072;11.970;2023-04-25T07:24:18;2.15;;;1.42;;
65206;SDS011;58477;48.072;11.970;2023-04-25T07:26:46;1.83;;;1.27;;
65206;SDS011;58477;48.072;11.970;2023-04-25T07:29:21;2.35;;;1.30;;
65206;SDS011;58477;48.072;11.970;2023-04-25T07:31:46;12.73;;;1.70;;
65206;SDS011;58477;48.072;11.970;2023-04-25T07:34:12;3.55;;;1.58;;
65206;SDS011;58477;48.072;11.970;2023-04-25T07:36:38;2.38;;;1.80;;
65206;SDS011;58477;48.072;11.970;2023-04-25T07:39:04;1.52;;;1.35;;
65206;SDS011;58477;48.072;11.970;2023-04-25T07:41:30;4.88;;;1.30;;
65206;SDS011;58477;48.072;11.970;2023-04-25T07:43:55;5.22;;;1.85;;
65206;SDS011;58477;48.072;11.970;2023-04-25T07:46:21;1.75;;;1.27;;
65206;SDS011;58477;48.072;11.970;2023-04-25T07:48:46;1.35;;;1.00;;
65206;SDS011;58477;48.072;11.970;2023-04-25T07:51:12;1.30;;;1.02;;
65206;SDS011;58477;48.072;11.970;2023-04-25T07:53:38;3.33;;;1.17;;
65206;SDS011;58477;48.072;11.970;2023-04-25T07:56:09;1.52;;;1.42;;
65206;SDS011;58477;48.072;11.970;2023-04-25T07:58:37;2.00;;;1.10;;
65206;SDS011;58477;48.072;11.970;2023-04-25T08:01:05;1.90;;;1.25;;
65206;SDS011;58477;48.072;11.970;2023-04-25T08:03:34;4.75;;;1.90;;
65206;SDS011;58477;48.072;11.970;2023-04-25T08:06:02;1.33;;;1.20;;
65206;SDS011;58477;48.072;11.970;2023-04-25T08:08:30;1.95;;;1.25;;
65206;SDS011;58477;48.072;11.970;2023-04-25T08:10:56;2.10;;;1.40;;
65206;SDS011;58477;48.072;11.970;2023-04-25T08:13:21;3.38;;;1.20;;
65206;SDS011;58477;48.072;11.970;2023-04-25T08:15:47;4.40;;;1.13;;
65206;SDS011;58477;48.072;11.970;2023-04-25T08:18:12;1.23;;;1.10;;
65206;SDS011;58477;48.072;11.970;2023-04-25T08:20:38;1.63;;;1.10;;
65206;SDS011;58477;48.072;11.970;2023-04-25T08:23:06;3.00;;;1.40;;
65206;SDS011;58477;48.072;11.970;2023-04-25T08:26:10;2.42;;;1.15;;
65206;SDS011;58477;48.072;11.970;2023-04-25T08:28:38;3.30;;;1.40;;
65206;SDS011;58477;48.072;11.970;2023-04-25T08:31:03;2.70;;;1.30;;
65206;SDS011;58477;48.072;11.970;2023-04-25T08:33:37;2.13;;;1.50;;
65206;SDS011;58477;48.072;11.970;2023-04-25T08:36:16;1.73;;;1.13;;
65206;SDS011;58477;48.072;11.970;2023-04-25T08:38:42;1.52;;;1.15;;
65206;SDS011;58477;48.072;11.970;2023-04-25T08:41:10;1.33;;;1.20;;
65206;SDS011;58477;48.072;11.970;2023-04-25T08:43:37;1.40;;;1.27;;
65206;SDS011;58477;48.072;11.970;2023-04-25T08:46:02;3.03;;;1.38;;
65206;SDS011;58477;48.072;11.970;2023-04-25T08:48:36;4.50;;;1.20;;
65206;SDS011;58477;48.072;11.970;2023-04-25T08:51:03;3.22;;;1.50;;
65206;SDS011;58477;48.072;11.970;2023-04-25T08:53:32;2.00;;;0.90;;
65206;SDS011;58477;48.072;11.970;2023-04-25T08:56:00;1.75;;;1.23;;
65206;SDS011;58477;48.072;11.970;2023-04-25T08:58:29;4.70;;;1.38;;
65206;SDS011;58477;48.072;11.970;2023-04-25T09:00:55;1.75;;;1.10;;
65206;SDS011;58477;48.072;11.970;2023-04-25T09:03:24;2.42;;;1.30;;
65206;SDS011;58477;48.072;11.970;2023-04-25T09:05:50;1.40;;;1.10;;
65206;SDS011;58477;48.072;11.970;2023-04-25T09:08:16;1.65;;;1.55;;
65206;SDS011;58477;48.072;11.970;2023-04-25T09:10:42;1.52;;;1.30;;
65206;SDS011;58477;48.072;11.970;2023-04-25T09:13:09;5.97;;;1.40;;
65206;SDS011;58477;48.072;11.970;2023-04-25T09:15:57;1.63;;;1.30;;
65206;SDS011;58477;48.072;11.970;2023-04-25T09:18:47;4.20;;;1.40;;
65206;SDS011;58477;48.072;11.970;2023-04-25T09:21:14;4.35;;;1.30;;
65206;SDS011;58477;48.072;11.970;2023-04-25T09:23:45;3.67;;;1.27;;
65206;SDS011;58477;48.072;11.970;2023-04-25T09:26:20;1.40;;;1.30;;
65206;SDS011;58477;48.072;11.970;2023-04-25T09:28:47;6.50;;;1.60;;
65206;SDS011;58477;48.072;11.970;2023-04-25T09:31:22;8.68;;;1.65;;
65206;SDS011;58477;48.072;11.970;2023-04-25T09:33:50;4.25;;;1.67;;
65206;SDS011;58477;48.072;11.970;2023-04-25T09:36:26;4.85;;;1.30;;
65206;SDS011;58477;48.072;11.970;2023-04-25T09:39:00;2.22;;;0.75;;
65206;SDS011;58477;48.072;11.970;2023-04-25T09:41:32;1.10;;;0.80;;
65206;SDS011;58477;48.072;11.970;2023-04-25T09:44:03;1.42;;;1.17;;
65206;SDS011;58477;48.072;11.970;2023-04-25T09:46:34;5.28;;;1.45;;
65206;SDS011;58477;48.072;11.970;2023-04-25T09:49:08;2.05;;;1.30;;
65206;SDS011;58477;48.072;11.970;2023-04-25T09:52:09;1.15;;;1.02;;
65206;SDS011;58477;48.072;11.970;2023-04-25T09:54:48;4.65;;;1.40;;
65206;SDS011;58477;48.072;11.970;2023-04-25T09:57:21;1.58;;;1.10;;
65206;SDS011;58477;48.072;11.970;2023-04-25T09:59:51;1.45;;;0.93;;
65206;SDS011;58477;48.072;11.970;2023-04-25T10:02:18;2.78;;;1.67;;
65206;SDS011;58477;48.072;11.970;2023-04-25T10:04:50;5.38;;;1.75;;
65206;SDS011;58477;48.072;11.970;2023-04-25T10:07:33;1.70;;;1.33;;
65206;SDS011;58477;48.072;11.970;2023-04-25T10:10:01;2.72;;;1.60;;
65206;SDS011;58477;48.072;11.970;2023-04-25T10:12:28;3.10;;;1.30;;
65206;SDS011;58477;48.072;11.970;2023-04-25T10:14:56;3.22;;;1.40;;
65206;SDS011;58477;48.072;11.970;2023-04-25T10:17:23;2.78;;;1.38;;
65206;SDS011;58477;48.072;11.970;2023-04-25T10:19:48;2.35;;;1.48;;
65206;SDS011;58477;48.072;11.970;2023-04-25T10:22:29;1.60;;;1.38;;
65206;SDS011;58477;48.072;11.970;2023-04-25T10:24:57;2.33;;;1.70;;
65206;SDS011;58477;48.072;11.970;2023-04-25T10:27:23;1.30;;;1.20;;
65206;SDS011;58477;48.072;11.970;2023-04-25T10:30:05;1.38;;;1.13;;
65206;SDS011;58477;48.072;11.970;2023-04-25T10:32:31;2.80;;;1.20;;
65206;SDS011;58477;48.072;11.970;2023-04-25T10:35:19;1.60;;;1.08;;
65206;SDS011;58477;48.072;11.970;2023-04-25T10:38:05;2.22;;;1.10;;
65206;SDS011;58477;48.072;11.970;2023-04-25T10:40:34;1.25;;;1.00;;
65206;SDS011;58477;48.072;11.970;2023-04-25T10:43:43;2.17;;;1.30;;
65206;SDS011;58477;48.072;11.970;2023-04-25T10:46:01;1.55;;;1.13;;
65206;SDS011;58477;48.072;11.970;2023-04-25T10:48:28;2.95;;;1.20;;
65206;SDS011;58477;48.072;11.970;2023-04-25T10:51:07;5.03;;;1.20;;
65206;SDS011;58477;48.072;11.970;2023-04-25T10:53:33;1.40;;;1.00;;
65206;SDS011;58477;48.072;11.970;2023-04-25T10:55:59;3.15;;;1.52;;
65206;SDS011;58477;48.072;11.970;2023-04-25T10:58:24;3.85;;;1.38;;
65206;SDS011;58477;48.072;11.970;2023-04-25T11:00:51;1.85;;;1.20;;
65206;SDS011;58477;48.072;11.970;2023-04-25T11:03:17;1.27;;;1.17;;
65206;SDS011;58477;48.072;11.970;2023-04-25T11:05:42;0.90;;;0.90;;
65206;SDS011;58477;48.072;11.970;2023-04-25T11:08:13;2.08;;;1.08;;
65206;SDS011;58477;48.072;11.970;2023-04-25T11:10:39;1.90;;;1.20;;
65206;SDS011;58477;48.072;11.970;2023-04-25T11:13:05;1.60;;;1.27;;
65206;SDS011;58477;48.072;11.970;2023-04-25T11:15:30;2.60;;;1.20;;
65206;SDS011;58477;48.072;11.970;2023-04-25T11:17:56;1.35;;;1.20;;
65206;SDS011;58477;48.072;11.970;2023-04-25T11:20:21;1.25;;;1.15;;
65206;SDS011;58477;48.072;11.970;2023-04-25T11:22:50;1.38;;;1.20;;
65206;SDS011;58477;48.072;11.970;2023-04-25T11:25:16;1.48;;;1.27;;
65206;SDS011;58477;48.072;11.970;2023-04-25T11:27:51;3.20;;;0.90;;
65206;SDS011;58477;48.072;11.970;2023-04-25T11:30:22;0.85;;;0.80;;
65206;SDS011;58477;48.072;11.970;2023-04-25T11:32:49;1.92;;;1.15;;
65206;SDS011;58477;48.072;11.970;2023-04-25T11:35:15;1.85;;;1.00;;
65206;SDS011;58477;48.072;11.970;2023-04-25T11:37:41;1.25;;;1.15;;
65206;SDS011;58477;48.072;11.970;2023-04-25T11:40:08;1.30;;;1.17;;
65206;SDS011;58477;48.072;11.970;2023-04-25T11:42:36;1.60;;;1.45;;
65206;SDS011;58477;48.072;11.970;2023-04-25T11:45:08;3.85;;;1.45;;
65206;SDS011;58477;48.072;11.970;2023-04-25T11:47:34;5.88;;;1.13;;
65206;SDS011;58477;48.072;11.970;2023-04-25T11:50:03;3.75;;;1.63;;
65206;SDS011;58477;48.072;11.970;2023-04-25T11:52:40;4.80;;;1.77;;
65206;SDS011;58477;48.072;11.970;2023-04-25T11:55:12;3.45;;;2.25;;
65206;SDS011;58477;48.072;11.970;2023-04-25T11:57:38;2.75;;;2.17;;
65206;SDS011;58477;48.072;11.970;2023-04-25T12:02:43;3.25;;;2.10;;
65206;SDS011;58477;48.072;11.970;2023-04-25T12:05:10;4.85;;;2.20;;
65206;SDS011;58477;48.072;11.970;2023-04-25T12:07:36;2.30;;;1.60;;
65206;SDS011;58477;48.072;11.970;2023-04-25T12:10:06;1.67;;;1.55;;
65206;SDS011;58477;48.072;11.970;2023-04-25T12:12:36;1.98;;;1.15;;
65206;SDS011;58477;48.072;11.970;2023-04-25T12:15:15;2.75;;;2.13;;
65206;SDS011;58477;48.072;11.970;2023-04-25T12:17:48;1.63;;;1.40;;
65206;SDS011;58477;48.072;11.970;2023-04-25T12:20:15;1.20;;;1.10;;
65206;SDS011;58477;48.072;11.970;2023-04-25T12:22:46;1.55;;;1.30;;
65206;SDS011;58477;48.072;11.970;2023-04-25T12:33:30;2.58;;;1.20;;
65206;SDS011;58477;48.072;11.970;2023-04-25T12:35:57;1.92;;;1.20;;
65206;SDS011;58477;48.072;11.970;2023-04-25T12:40:53;0.90;;;0.90;;
65206;SDS011;58477;48.072;11.970;2023-04-25T12:43:19;1.08;;;1.00;;
65206;SDS011;58477;48.072;11.970;2023-04-25T12:45:46;1.00;;;1.00;;
65206;SDS011;58477;48.072;11.970;2023-04-25T12:48:13;1.75;;;1.08;;
65206;SDS011;58477;48.072;11.970;2023-04-25T12:50:39;0.95;;;0.90;;
65206;SDS011;58477;48.072;11.970;2023-04-25T12:53:04;0.90;;;0.90;;
65206;SDS011;58477;48.072;11.970;2023-04-25T12:55:29;2.20;;;0.90;;
65206;SDS011;58477;48.072;11.970;2023-04-25T12:57:55;1.10;;;1.00;;
65206;SDS011;58477;48.072;11.970;2023-04-25T13:00:20;1.83;;;1.27;;
65206;SDS011;58477;48.072;11.970;2023-04-25T13:02:46;0.80;;;0.80;;
65206;SDS011;58477;48.072;11.970;2023-04-25T13:05:14;1.23;;;1.02;;
65206;SDS011;58477;48.072;11.970;2023-04-25T13:07:40;0.90;;;0.90;;
65206;SDS011;58477;48.072;11.970;2023-04-25T13:10:06;1.25;;;1.15;;
65206;SDS011;58477;48.072;11.970;2023-04-25T13:12:32;3.22;;;1.40;;
65206;SDS011;58477;48.072;11.970;2023-04-25T13:14:58;1.25;;;1.10;;
65206;SDS011;58477;48.072;11.970;2023-04-25T13:17:23;2.00;;;1.67;;
65206;SDS011;58477;48.072;11.970;2023-04-25T13:19:49;2.42;;;1.38;;
65206;SDS011;58477;48.072;11.970;2023-04-25T13:22:14;1.00;;;0.90;;
65206;SDS011;58477;48.072;11.970;2023-04-25T13:24:41;1.25;;;1.00;;
65206;SDS011;58477;48.072;11.970;2023-04-25T13:27:08;1.00;;;0.85;;
65206;SDS011;58477;48.072;11.970;2023-04-25T13:29:33;3.50;;;1.40;;
65206;SDS011;58477;48.072;11.970;2023-04-25T13:32:00;1.08;;;1.00;;
65206;SDS011;58477;48.072;11.970;2023-04-25T13:34:29;0.63;;;0.63;;
65206;SDS011;58477;48.072;11.970;2023-04-25T13:36:54;0.80;;;0.80;;
65206;SDS011;58477;48.072;11.970;2023-04-25T13:39:20;2.00;;;0.70;;
65206;SDS011;58477;48.072;11.970;2023-04-25T13:41:46;1.98;;;0.63;;
65206;SDS011;58477;48.072;11.970;2023-04-25T13:44:11;0.75;;;0.75;;
65206;SDS011;58477;48.072;11.970;2023-04-25T13:46:37;0.98;;;0.75;;
65206;SDS011;58477;48.072;11.970;2023-04-25T13:49:03;2.53;;;1.00;;
65206;SDS011;58477;48.072;11.970;2023-04-25T13:51:29;1.30;;;1.20;;
65206;SDS011;58477;48.072;11.970;2023-04-25T13:53:55;1.92;;;1.27;;
65206;SDS011;58477;48.072;11.970;2023-04-25T13:56:21;1.55;;;1.27;;
65206;SDS011;58477;48.072;11.970;2023-04-25T13:58:48;2.53;;;1.13;;
65206;SDS011;58477;48.072;11.970;2023-04-25T14:01:15;1.85;;;1.33;;
65206;SDS011;58477;48.072;11.970;2023-04-25T14:03:40;1.63;;;1.33;;
65206;SDS011;58477;48.072;11.970;2023-04-25T14:06:06;1.40;;;1.30;;
65206;SDS011;58477;48.072;11.970;2023-04-25T14:08:32;1.27;;;1.17;;
65206;SDS011;58477;48.072;11.970;2023-04-25T14:10:57;1.45;;;0.85;;
65206;SDS011;58477;48.072;11.970;2023-04-25T14:13:22;1.23;;;1.13;;
65206;SDS011;58477;48.072;11.970;2023-04-25T14:15:48;1.25;;;1.15;;
65206;SDS011;58477;48.072;11.970;2023-04-25T14:18:15;4.72;;;1.30;;
65206;SDS011;58477;48.072;11.970;2023-04-25T14:20:41;1.85;;;1.48;;
65206;SDS011;58477;48.072;11.970;2023-04-25T14:23:06;1.70;;;1.20;;
65206;SDS011;58477;48.072;11.970;2023-04-25T14:25:32;1.02;;;0.90;;
65206;SDS011;58477;48.072;11.970;2023-04-25T14:27:57;1.23;;;1.10;;
65206;SDS011;58477;48.072;11.970;2023-04-25T14:30:22;1.17;;;1.08;;
65206;SDS011;58477;48.072;11.970;2023-04-25T14:32:48;1.20;;;1.05;;
65206;SDS011;58477;48.072;11.970;2023-04-25T14:35:14;1.08;;;0.85;;
65206;SDS011;58477;48.072;11.970;2023-04-25T14:37:40;0.75;;;0.75;;
65206;SDS011;58477;48.072;11.970;2023-04-25T14:40:05;1.45;;;1.05;;
65206;SDS011;58477;48.072;11.970;2023-04-25T14:42:35;0.30;;;0.30;;
65206;SDS011;58477;48.072;11.970;2023-04-25T14:45:01;0.80;;;0.80;;
65206;SDS011;58477;48.072;11.970;2023-04-25T14:47:27;0.90;;;0.90;;
65206;SDS011;58477;48.072;11.970;2023-04-25T14:49:53;0.63;;;0.63;;
65206;SDS011;58477;48.072;11.970;2023-04-25T14:52:19;2.45;;;0.70;;
65206;SDS011;58477;48.072;11.970;2023-04-25T14:54:46;1.50;;;0.60;;
65206;SDS011;58477;48.072;11.970;2023-04-25T14:57:12;1.00;;;0.82;;
65206;SDS011;58477;48.072;11.970;2023-04-25T14:59:38;1.13;;;1.02;;